Time;durP1;ratioP1;P1;durP2;ratioP2;P2;SDS_P1;SDS_P2;PMS_P1;PMS_P2;Temp;Humidity;BMP_temperature;BMP_pressure;BME280_temperature;BME280_humidity;BME280_pressure;Samples;Min_cycle;Max_cycle;Signal;HPM_P1;HPM_P2
2023/10/05 00:03:47;;;;;;;8.93;3.45;;;13.00;99.90;;;;;;5003921;28;20054;-75
2023/10/05 00:06:14;;;;;;;9.13;3.15;;;13.10;99.90;;;;;;4995813;28;20053;-75
2023/10/05 00:08:49;;;;;;;19.25;3.80;;;13.00;99.90;;;;;;4994203;28;20103;-75
2023/10/05 00:11:23;;;;;;;8.68;3.63;;;13.00;99.90;;;;;;4991605;28;20074;-74
2023/10/05 00:13:53;;;;;;;11.60;3.95;;;13.00;99.90;;;;;;4992168;28;20447;-75
2023/10/05 00:16:20;;;;;;;11.70;3.40;;;13.00;99.90;;;;;;4979253;28;20030;-75
2023/10/05 00:18:50;;;;;;;12.63;3.75;;;13.00;99.90;;;;;;5010969;28;20057;-74
2023/10/05 00:21:20;;;;;;;10.48;3.22;;;13.00;99.90;;;;;;5006966;28;20041;-74
2023/10/05 00:23:50;;;;;;;8.02;3.70;;;12.90;99.90;;;;;;5010009;28;20429;-74
2023/10/05 00:26:20;;;;;;;7.97;3.55;;;13.00;99.90;;;;;;4995799;28;20561;-75
2023/10/05 00:28:55;;;;;;;8.35;3.55;;;13.00;99.90;;;;;;4975870;28;20050;-75
2023/10/05 00:31:24;;;;;;;8.50;4.00;;;13.00;99.90;;;;;;4990895;28;20045;-75
2023/10/05 00:33:55;;;;;;;12.15;3.58;;;12.90;99.90;;;;;;4992594;28;20046;-75
2023/10/05 00:36:24;;;;;;;9.65;3.17;;;13.00;99.90;;;;;;5005212;28;20049;-75
2023/10/05 00:38:50;;;;;;;12.65;3.63;;;12.90;99.90;;;;;;4984638;28;20120;-75
2023/10/05 00:41:16;;;;;;;12.80;4.07;;;12.90;99.90;;;;;;4988042;28;20049;-75
2023/10/05 00:43:46;;;;;;;9.77;3.50;;;12.90;99.90;;;;;;5010573;28;20386;-75
2023/10/05 00:46:12;;;;;;;10.43;3.85;;;12.90;99.90;;;;;;4995352;28;20049;-75
2023/10/05 00:48:48;;;;;;;12.73;3.50;;;12.90;99.90;;;;;;5004298;28;20092;-75
2023/10/05 00:51:23;;;;;;;13.27;3.95;;;12.90;99.90;;;;;;5004206;28;20120;-75
2023/10/05 00:53:50;;;;;;;15.88;3.53;;;12.90;99.90;;;;;;4972361;28;20061;-75
2023/10/05 00:56:17;;;;;;;9.90;4.05;;;12.90;99.90;;;;;;4987246;28;20121;-75
2023/10/05 00:58:47;;;;;;;9.43;3.58;;;12.90;99.90;;;;;;5005201;28;20069;-75
2023/10/05 01:01:16;;;;;;;9.82;4.03;;;12.90;99.90;;;;;;5004698;28;20416;-75
2023/10/05 01:04:18;;;;;;;8.35;3.70;;;12.90;99.90;;;;;;4977985;28;20488;-75
2023/10/05 01:14:46;;;;;;;7.93;3.65;;;12.90;99.90;;;;;;4993475;28;20046;-75
2023/10/05 01:17:12;;;;;;;10.43;3.40;;;12.90;99.90;;;;;;4992530;28;20034;-75
2023/10/05 01:19:39;;;;;;;10.75;3.88;;;12.90;99.90;;;;;;5005520;28;20042;-75
2023/10/05 01:22:12;;;;;;;10.57;3.92;;;12.90;99.90;;;;;;4989484;28;20054;-75
2023/10/05 01:24:38;;;;;;;10.98;3.83;;;12.90;99.90;;;;;;4983065;28;20457;-75
2023/10/05 01:27:04;;;;;;;8.95;3.72;;;12.90;99.90;;;;;;4983165;28;20560;-74
2023/10/05 01:29:30;;;;;;;9.48;3.83;;;12.90;99.90;;;;;;4998656;28;20034;-74
2023/10/05 01:31:56;;;;;;;10.57;3.88;;;12.90;99.90;;;;;;5000122;28;20524;-75
2023/10/05 01:34:22;;;;;;;8.90;4.00;;;12.90;99.90;;;;;;5002385;28;20088;-75
2023/10/05 01:36:48;;;;;;;8.15;3.60;;;12.90;99.90;;;;;;4965354;28;20041;-75
2023/10/05 01:39:19;;;;;;;9.23;3.90;;;12.90;99.90;;;;;;4980786;28;20081;-75
2023/10/05 01:41:47;;;;;;;10.65;3.60;;;12.90;99.90;;;;;;4982250;28;20505;-75
2023/10/05 01:44:14;;;;;;;11.77;3.67;;;12.90;99.90;;;;;;4969474;28;20038;-75
2023/10/05 01:46:40;;;;;;;13.50;4.13;;;12.90;99.90;;;;;;4970331;28;20543;-75
2023/10/05 01:49:06;;;;;;;9.90;3.60;;;12.90;99.90;;;;;;4981727;28;20034;-75
2023/10/05 01:51:32;;;;;;;10.70;3.90;;;13.00;99.90;;;;;;4987933;28;20034;-75
2023/10/05 01:54:11;;;;;;;13.55;3.80;;;13.00;99.90;;;;;;4967715;28;20029;-75
2023/10/05 01:56:39;;;;;;;10.07;3.67;;;13.00;99.90;;;;;;5005102;28;20034;-75
2023/10/05 01:59:06;;;;;;;7.72;3.50;;;13.00;99.90;;;;;;4986567;28;20087;-75
2023/10/05 02:01:36;;;;;;;10.45;4.10;;;13.00;99.90;;;;;;5000624;28;20070;-75
2023/10/05 02:04:03;;;;;;;12.32;3.85;;;13.00;99.90;;;;;;4987670;28;20046;-75
2023/10/05 02:06:41;;;;;;;8.88;3.45;;;13.00;99.90;;;;;;4981316;28;20099;-75
2023/10/05 02:09:10;;;;;;;12.27;4.40;;;13.00;99.90;;;;;;4989995;28;20579;-75
2023/10/05 02:11:36;;;;;;;9.85;3.60;;;13.10;99.90;;;;;;4993499;28;20038;-75
2023/10/05 02:14:06;;;;;;;10.02;4.25;;;13.00;99.90;;;;;;5003648;28;20034;-75
2023/10/05 02:16:32;;;;;;;11.00;4.00;;;13.00;99.90;;;;;;4978680;28;20038;-75
2023/10/05 02:19:06;;;;;;;8.70;3.28;;;13.00;99.90;;;;;;4972126;28;20448;-75
2023/10/05 02:21:38;;;;;;;8.95;3.78;;;13.00;99.90;;;;;;5008884;28;20037;-75
2023/10/05 02:24:16;;;;;;;11.48;4.20;;;13.00;99.90;;;;;;5012182;28;20053;-75
2023/10/05 02:29:30;;;;;;;13.07;3.70;;;13.00;99.90;;;;;;5004606;28;20205;-75
2023/10/05 02:34:22;;;;;;;11.45;4.15;;;13.00;99.90;;;;;;4986652;28;20088;-75
2023/10/05 02:36:50;;;;;;;8.65;3.70;;;13.00;99.90;;;;;;5000611;28;20034;-75
2023/10/05 02:39:21;;;;;;;13.57;4.07;;;13.00;99.90;;;;;;4993082;28;20054;-75
2023/10/05 02:41:50;;;;;;;8.40;4.30;;;12.90;99.90;;;;;;4969794;28;20084;-75
2023/10/05 02:44:35;;;;;;;11.45;4.00;;;12.90;99.90;;;;;;4983110;28;20052;-75
2023/10/05 02:47:12;;;;;;;11.48;3.90;;;12.90;99.90;;;;;;4971266;28;20046;-75
2023/10/05 02:49:43;;;;;;;11.18;4.03;;;12.90;99.90;;;;;;5002850;28;20045;-75
2023/10/05 02:52:14;;;;;;;9.63;3.60;;;12.90;99.90;;;;;;4990920;28;20128;-75
2023/10/05 02:54:40;;;;;;;7.63;3.80;;;12.90;99.90;;;;;;5008722;28;20210;-75
2023/10/05 02:57:16;;;;;;;8.90;3.55;;;12.90;99.90;;;;;;4969403;28;20121;-75
2023/10/05 02:59:45;;;;;;;12.57;4.30;;;12.90;99.90;;;;;;4985447;28;20230;-75
2023/10/05 03:02:14;;;;;;;9.23;4.07;;;12.90;99.90;;;;;;4990443;28;20501;-75
2023/10/05 03:07:35;;;;;;;13.65;4.57;;;12.90;99.90;;;;;;4982194;28;20053;-75
2023/10/05 03:10:01;;;;;;;8.18;3.88;;;13.00;99.90;;;;;;4989565;28;20041;-75
2023/10/05 03:12:27;;;;;;;9.98;4.22;;;13.00;99.90;;;;;;4976888;28;20034;-75
2023/10/05 03:14:54;;;;;;;11.35;3.70;;;13.00;99.90;;;;;;4999362;28;20109;-75
2023/10/05 03:17:21;;;;;;;10.45;3.78;;;13.00;99.90;;;;;;4977243;28;20030;-75
2023/10/05 03:19:48;;;;;;;12.38;4.13;;;13.00;99.90;;;;;;5000506;28;20039;-75
2023/10/05 03:22:14;;;;;;;9.75;4.03;;;13.00;99.90;;;;;;4997095;28;20038;-75
2023/10/05 03:24:47;;;;;;;9.00;4.35;;;13.10;99.90;;;;;;5002384;28;20393;-75
2023/10/05 03:27:14;;;;;;;11.00;4.32;;;13.10;99.90;;;;;;4992721;28;20046;-75
2023/10/05 03:29:42;;;;;;;8.88;4.18;;;13.00;99.90;;;;;;4982631;28;20105;-75
2023/10/05 03:34:37;;;;;;;14.80;4.18;;;13.00;99.90;;;;;;5000631;28;20540;-75
2023/10/05 03:37:07;;;;;;;11.00;4.45;;;13.00;99.90;;;;;;4999216;28;20037;-75
2023/10/05 03:39:38;;;;;;;13.10;4.78;;;13.00;99.90;;;;;;5003132;28;20436;-75
2023/10/05 03:42:05;;;;;;;11.52;4.47;;;13.00;99.90;;;;;;4994790;28;20093;-75
2023/10/05 03:44:31;;;;;;;10.98;4.65;;;13.00;99.90;;;;;;5000024;28;20470;-75
2023/10/05 03:46:57;;;;;;;13.90;4.90;;;13.00;99.90;;;;;;4964382;28;20413;-75
2023/10/05 03:49:24;;;;;;;9.52;4.18;;;13.00;99.90;;;;;;4998547;28;20408;-75
2023/10/05 03:51:49;;;;;;;9.00;4.13;;;13.00;99.90;;;;;;4988322;28;20104;-75
2023/10/05 03:54:24;;;;;;;12.02;4.93;;;13.00;99.90;;;;;;4999954;28;20034;-75
2023/10/05 03:56:50;;;;;;;11.98;4.30;;;13.00;99.90;;;;;;5003622;28;20104;-75
2023/10/05 03:59:17;;;;;;;10.77;4.25;;;13.00;99.90;;;;;;5000149;28;20053;-75
2023/10/05 04:01:48;;;;;;;8.02;3.90;;;12.90;99.90;;;;;;4972187;28;20030;-75
2023/10/05 04:04:16;;;;;;;11.95;4.47;;;13.00;99.90;;;;;;4985061;28;20374;-75
2023/10/05 04:06:42;;;;;;;11.27;4.40;;;13.00;99.90;;;;;;5001893;28;20044;-75
2023/10/05 04:09:15;;;;;;;10.90;3.85;;;13.00;99.90;;;;;;4978825;28;20113;-75
2023/10/05 04:11:42;;;;;;;11.55;4.55;;;13.00;99.90;;;;;;4983586;28;20046;-75
2023/10/05 04:14:09;;;;;;;12.02;4.60;;;13.00;99.90;;;;;;4980920;28;20096;-75
2023/10/05 04:16:35;;;;;;;14.82;4.28;;;13.00;99.90;;;;;;4980072;28;20270;-75
2023/10/05 04:19:04;;;;;;;13.88;4.47;;;13.00;99.90;;;;;;4965126;28;20054;-75
2023/10/05 04:21:33;;;;;;;11.63;4.88;;;12.90;99.90;;;;;;5005057;28;20056;-75
2023/10/05 04:23:59;;;;;;;11.88;4.20;;;12.90;99.90;;;;;;4999334;28;20033;-75
2023/10/05 04:26:32;;;;;;;12.55;4.60;;;12.90;99.90;;;;;;4963597;28;20085;-75
2023/10/05 04:29:04;;;;;;;13.05;4.32;;;12.90;99.90;;;;;;4994921;28;20120;-75
2023/10/05 04:31:30;;;;;;;11.02;4.15;;;12.90;99.90;;;;;;4996206;28;20062;-75
2023/10/05 04:33:56;;;;;;;12.02;5.15;;;13.00;99.90;;;;;;4997079;28;20544;-75
2023/10/05 04:36:25;;;;;;;11.52;4.57;;;13.00;99.90;;;;;;5005758;28;20406;-75
2023/10/05 04:38:53;;;;;;;11.10;4.40;;;13.00;99.90;;;;;;4987499;28;20093;-75
2023/10/05 04:41:35;;;;;;;12.25;4.50;;;13.00;99.90;;;;;;4981758;28;20398;-75
2023/10/05 04:44:01;;;;;;;10.75;4.60;;;13.00;99.90;;;;;;4977959;28;20508;-75
2023/10/05 04:46:28;;;;;;;12.05;4.80;;;13.00;99.90;;;;;;4986216;28;20060;-75
2023/10/05 04:49:09;;;;;;;11.32;4.22;;;13.00;99.90;;;;;;4995816;28;20046;-75
2023/10/05 04:51:38;;;;;;;13.95;4.43;;;13.00;99.90;;;;;;4970738;28;20096;-75
2023/10/05 04:54:06;;;;;;;9.20;4.43;;;13.10;99.90;;;;;;5005455;28;20042;-75
2023/10/05 04:56:40;;;;;;;14.50;4.20;;;13.10;99.90;;;;;;4999482;28;20030;-75
2023/10/05 05:07:09;;;;;;;17.90;5.05;;;13.10;99.90;;;;;;4991319;28;20121;-75
2023/10/05 05:09:38;;;;;;;13.75;4.38;;;13.10;99.90;;;;;;5003221;28;20118;-75
2023/10/05 05:12:08;;;;;;;13.65;4.20;;;13.10;99.90;;;;;;4987822;28;20048;-75
2023/10/05 05:14:37;;;;;;;11.70;4.45;;;13.10;99.90;;;;;;4984034;28;20437;-75
2023/10/05 05:17:05;;;;;;;12.38;4.40;;;13.00;99.90;;;;;;4993977;28;20117;-75
2023/10/05 05:19:31;;;;;;;17.55;5.13;;;13.00;99.90;;;;;;4995362;28;20113;-75
2023/10/05 05:21:59;;;;;;;10.15;4.53;;;13.00;99.90;;;;;;4984215;28;20104;-75
2023/10/05 05:24:28;;;;;;;14.00;3.88;;;13.00;99.90;;;;;;4985634;28;20468;-75
2023/10/05 05:27:00;;;;;;;13.20;4.95;;;13.00;99.90;;;;;;5004050;28;20081;-75
2023/10/05 05:29:33;;;;;;;15.95;4.95;;;13.00;99.90;;;;;;4985543;28;20212;-75
2023/10/05 05:32:07;;;;;;;12.60;4.22;;;13.00;99.90;;;;;;4988342;28;20104;-75
2023/10/05 05:34:33;;;;;;;15.10;4.57;;;13.00;99.90;;;;;;4986078;28;20038;-75
2023/10/05 05:36:59;;;;;;;14.38;4.60;;;13.00;99.90;;;;;;4998857;28;20044;-75
2023/10/05 05:39:26;;;;;;;14.63;4.70;;;13.00;99.90;;;;;;4983090;28;20077;-75
2023/10/05 05:42:06;;;;;;;18.38;4.72;;;12.90;99.90;;;;;;5000578;28;20062;-75
2023/10/05 05:44:34;;;;;;;10.70;4.43;;;13.00;99.90;;;;;;4979274;28;20034;-75
2023/10/05 05:47:09;;;;;;;10.25;4.63;;;13.00;99.90;;;;;;5014099;28;20046;-75
2023/10/05 05:49:38;;;;;;;12.60;4.40;;;13.00;99.90;;;;;;4965900;28;20046;-75
2023/10/05 05:52:08;;;;;;;13.70;4.65;;;13.00;99.90;;;;;;4977299;28;20485;-75
2023/10/05 05:54:37;;;;;;;19.20;5.07;;;13.00;99.90;;;;;;4992436;28;20045;-75
2023/10/05 05:57:06;;;;;;;13.02;4.32;;;13.00;99.90;;;;;;4996173;28;20030;-76
2023/10/05 05:59:34;;;;;;;12.13;5.30;;;13.00;99.90;;;;;;4995922;28;20104;-75
2023/10/05 06:02:01;;;;;;;15.50;4.90;;;13.00;99.90;;;;;;4989764;28;20046;-75
2023/10/05 06:04:28;;;;;;;14.13;4.50;;;13.00;99.90;;;;;;4989586;28;20077;-75
2023/10/05 06:06:54;;;;;;;14.48;4.43;;;13.00;99.90;;;;;;4979852;28;20038;-75
2023/10/05 06:09:22;;;;;;;10.02;4.30;;;13.00;99.90;;;;;;5012653;28;20128;-75
2023/10/05 06:11:51;;;;;;;11.30;4.60;;;13.00;99.90;;;;;;4995457;28;20069;-75
2023/10/05 06:14:20;;;;;;;14.98;5.10;;;13.00;99.90;;;;;;4993167;28;20034;-75
2023/10/05 06:16:45;;;;;;;10.23;4.10;;;13.00;99.90;;;;;;5004005;28;20042;-75
2023/10/05 06:19:12;;;;;;;13.70;4.63;;;13.00;99.90;;;;;;5004435;28;20031;-75
2023/10/05 06:21:39;;;;;;;12.63;4.38;;;13.00;99.90;;;;;;5004534;28;20413;-75
2023/10/05 06:24:05;;;;;;;15.10;4.40;;;13.10;99.90;;;;;;4984969;28;20180;-75
2023/10/05 06:26:31;;;;;;;13.20;4.72;;;13.10;99.90;;;;;;5001499;28;20042;-75
2023/10/05 06:28:57;;;;;;;10.30;4.68;;;13.10;99.90;;;;;;4993087;28;20053;-76
2023/10/05 06:31:23;;;;;;;10.45;4.00;;;13.10;99.90;;;;;;4993177;28;20489;-75
2023/10/05 06:33:49;;;;;;;13.82;4.65;;;13.20;99.90;;;;;;5007873;28;20511;-75
2023/10/05 06:36:14;;;;;;;15.18;4.30;;;13.20;99.90;;;;;;4996872;28;20038;-75
2023/10/05 06:38:40;;;;;;;12.48;4.45;;;13.30;99.90;;;;;;4990136;28;20128;-76
2023/10/05 06:41:06;;;;;;;10.70;3.88;;;13.30;99.90;;;;;;4997049;28;20037;-75
2023/10/05 06:43:35;;;;;;;9.48;3.65;;;13.30;99.90;;;;;;5013103;28;20506;-75
2023/10/05 06:46:14;;;;;;;9.93;3.83;;;13.30;99.90;;;;;;5013259;28;20046;-75
2023/10/05 06:48:41;;;;;;;12.07;4.47;;;13.30;99.90;;;;;;4974474;28;20046;-75
2023/10/05 06:51:07;;;;;;;13.82;4.25;;;13.40;99.90;;;;;;4973250;28;20411;-75
2023/10/05 06:53:33;;;;;;;13.35;4.40;;;13.40;99.90;;;;;;4976437;28;20038;-75
2023/10/05 06:55:58;;;;;;;12.20;4.25;;;13.40;99.90;;;;;;4973295;28;20497;-75
2023/10/05 06:58:24;;;;;;;13.30;4.40;;;13.40;99.90;;;;;;5012998;28;20547;-75
2023/10/05 07:00:51;;;;;;;12.55;3.92;;;13.50;99.90;;;;;;5013061;28;20050;-75
2023/10/05 07:03:16;;;;;;;12.98;4.63;;;13.50;99.90;;;;;;4987700;28;20045;-76
2023/10/05 07:05:42;;;;;;;11.60;4.13;;;13.50;99.90;;;;;;4980354;28;20037;-75
2023/10/05 07:08:08;;;;;;;12.00;4.50;;;13.50;99.90;;;;;;4979959;28;20033;-75
2023/10/05 07:10:34;;;;;;;16.95;4.88;;;13.60;99.90;;;;;;5012955;28;20049;-76
2023/10/05 07:12:59;;;;;;;9.52;4.30;;;13.60;99.90;;;;;;4978392;28;20035;-75
2023/10/05 07:15:25;;;;;;;11.50;5.13;;;13.60;99.90;;;;;;4980085;28;20172;-75
2023/10/05 07:17:51;;;;;;;13.23;4.60;;;13.70;99.90;;;;;;4987353;28;20096;-75
2023/10/05 07:20:20;;;;;;;12.02;4.28;;;13.70;99.90;;;;;;4994971;28;20072;-75
2023/10/05 07:22:47;;;;;;;16.50;4.53;;;13.70;99.90;;;;;;4996333;28;20046;-75
2023/10/05 07:25:17;;;;;;;16.50;4.30;;;13.70;99.90;;;;;;4995383;28;20125;-76
2023/10/05 07:27:43;;;;;;;13.98;4.75;;;13.80;99.90;;;;;;5006027;28;20033;-77
2023/10/05 07:30:10;;;;;;;12.70;4.50;;;13.80;99.90;;;;;;4983612;28;20069;-77
2023/10/05 07:32:36;;;;;;;11.63;4.35;;;13.80;99.90;;;;;;5010173;28;20038;-76
2023/10/05 07:35:02;;;;;;;10.27;4.20;;;13.80;99.90;;;;;;4992888;28;20076;-76
2023/10/05 07:37:29;;;;;;;16.77;4.70;;;13.80;99.90;;;;;;4995812;28;20073;-76
2023/10/05 07:39:55;;;;;;;11.30;3.90;;;13.80;99.90;;;;;;4985312;28;20041;-76
2023/10/05 07:42:21;;;;;;;14.15;4.43;;;13.90;99.90;;;;;;4980183;28;20063;-76
2023/10/05 07:44:46;;;;;;;12.70;4.63;;;13.90;99.90;;;;;;4996127;28;20467;-76
2023/10/05 07:47:12;;;;;;;9.73;4.20;;;13.90;99.90;;;;;;4995439;28;20120;-75
2023/10/05 07:49:41;;;;;;;11.52;4.28;;;14.00;99.90;;;;;;5011243;28;20245;-76
2023/10/05 07:52:10;;;;;;;13.20;4.60;;;14.00;99.90;;;;;;4979107;28;20038;-77
2023/10/05 07:54:38;;;;;;;16.55;3.92;;;14.00;99.90;;;;;;5004441;28;20112;-77
2023/10/05 07:57:07;;;;;;;12.23;4.53;;;14.00;99.90;;;;;;4996157;28;20046;-77
2023/10/05 07:59:33;;;;;;;13.95;5.00;;;14.00;99.90;;;;;;4979811;28;20049;-77
2023/10/05 08:01:58;;;;;;;13.20;4.88;;;14.10;99.90;;;;;;5012348;28;20049;-77
2023/10/05 08:04:24;;;;;;;11.80;4.50;;;14.10;99.90;;;;;;4955886;28;20517;-77
2023/10/05 08:06:50;;;;;;;11.57;4.82;;;14.20;99.90;;;;;;4995634;28;20046;-77
2023/10/05 08:09:20;;;;;;;13.40;4.45;;;14.30;99.90;;;;;;4995262;28;20416;-77
2023/10/05 08:11:53;;;;;;;13.68;4.55;;;14.30;99.90;;;;;;4989742;28;20046;-77
2023/10/05 08:14:20;;;;;;;;;;;14.40;99.90;;;;;;5012172;28;20054;-77
2023/10/05 08:16:46;;;;;;;13.13;4.45;;;14.40;99.90;;;;;;4995292;28;20444;-77
2023/10/05 08:19:12;;;;;;;11.50;4.07;;;14.40;99.90;;;;;;4993461;28;20046;-77
2023/10/05 08:21:38;;;;;;;11.65;3.85;;;14.50;99.90;;;;;;5008467;28;20050;-77
2023/10/05 08:24:04;;;;;;;12.18;4.88;;;14.50;99.90;;;;;;4991881;28;20116;-77
2023/10/05 08:26:30;;;;;;;10.43;4.10;;;14.60;99.90;;;;;;4979246;28;20124;-77
2023/10/05 08:28:56;;;;;;;12.25;5.45;;;14.60;99.90;;;;;;4962048;28;20126;-77
2023/10/05 08:31:25;;;;;;;13.02;4.55;;;14.60;99.90;;;;;;4995430;28;20061;-78
2023/10/05 08:33:55;;;;;;;14.10;4.88;;;14.60;99.90;;;;;;5007851;28;20065;-77
2023/10/05 08:36:21;;;;;;;13.48;5.53;;;14.70;99.90;;;;;;4991000;28;20041;-78
2023/10/05 08:38:48;;;;;;;19.30;4.95;;;14.80;99.90;;;;;;5010773;28;20050;-77
2023/10/05 08:41:36;;;;;;;11.18;4.43;;;14.90;99.90;;;;;;4995271;28;20112;-75
2023/10/05 08:44:26;;;;;;;13.57;5.20;;;14.90;99.90;;;;;;5011331;28;20136;-85
2023/10/05 08:46:52;;;;;;;11.70;4.50;;;15.00;99.90;;;;;;5011738;28;20053;-77
2023/10/05 08:49:18;;;;;;;13.35;4.15;;;15.10;99.90;;;;;;5011079;28;20069;-77
2023/10/05 08:51:44;;;;;;;11.00;4.30;;;15.10;99.90;;;;;;5011408;28;20069;-76
2023/10/05 08:54:12;;;;;;;14.85;4.32;;;15.20;99.90;;;;;;5011760;28;20104;-76
2023/10/05 08:56:45;;;;;;;15.23;4.95;;;15.20;99.90;;;;;;4982057;28;20377;-76
2023/10/05 08:59:13;;;;;;;10.65;4.20;;;15.30;99.90;;;;;;4995100;28;20038;-77
2023/10/05 09:01:43;;;;;;;11.55;4.40;;;15.20;99.90;;;;;;4975765;28;20038;-76
2023/10/05 09:07:08;;;;;;;16.75;4.30;;;15.20;99.90;;;;;;5011471;28;20046;-76
2023/10/05 09:09:54;;;;;;;10.63;4.10;;;15.20;99.90;;;;;;4994753;28;20489;-76
2023/10/05 09:12:38;;;;;;;13.30;4.38;;;15.40;99.90;;;;;;5013629;28;20073;-76
2023/10/05 09:15:34;;;;;;;13.23;5.00;;;15.40;99.90;;;;;;5000384;28;20081;-76
2023/10/05 09:20:36;;;;;;;12.77;4.25;;;15.50;99.90;;;;;;5013647;28;20049;-76
2023/10/05 09:23:04;;;;;;;12.35;4.18;;;15.50;99.90;;;;;;5005223;28;20085;-76
2023/10/05 09:25:38;;;;;;;16.08;4.47;;;15.60;99.90;;;;;;5011349;28;20053;-76
2023/10/05 09:28:16;;;;;;;12.85;4.75;;;15.50;99.90;;;;;;5003064;28;20112;-75
2023/10/05 09:31:02;;;;;;;16.13;4.35;;;15.60;99.90;;;;;;5019516;28;20060;-76
2023/10/05 09:33:34;;;;;;;12.35;4.25;;;15.60;99.90;;;;;;5010274;28;20043;-76
2023/10/05 09:36:19;;;;;;;14.63;4.73;;;15.50;99.90;;;;;;5002005;28;20045;-76
2023/10/05 09:38:46;;;;;;;13.60;4.78;;;15.50;99.90;;;;;;5017778;28;20545;-76
2023/10/05 09:41:17;;;;;;;12.43;4.57;;;15.50;99.90;;;;;;4986239;28;20100;-76
2023/10/05 09:43:44;;;;;;;10.07;4.70;;;15.50;99.90;;;;;;5016361;28;20034;-76
2023/10/05 09:46:11;;;;;;;19.92;5.22;;;15.50;99.90;;;;;;5016323;28;20041;-76
2023/10/05 09:48:38;;;;;;;13.35;4.28;;;15.50;99.90;;;;;;5000780;28;20038;-76
2023/10/05 09:51:10;;;;;;;12.90;4.47;;;15.60;99.90;;;;;;4999141;28;20045;-75
2023/10/05 09:53:42;;;;;;;12.77;4.90;;;15.60;99.90;;;;;;5015859;28;20045;-75
2023/10/05 09:56:12;;;;;;;15.25;5.10;;;15.60;99.90;;;;;;5015873;28;20555;-76
2023/10/05 09:58:41;;;;;;;13.90;4.35;;;15.50;99.90;;;;;;5000723;28;20041;-76
2023/10/05 10:01:20;;;;;;;12.80;4.43;;;15.60;99.90;;;;;;5005310;28;20045;-76
2023/10/05 10:03:46;;;;;;;13.18;4.80;;;15.50;99.90;;;;;;4997265;28;20042;-76
2023/10/05 10:06:17;;;;;;;14.93;5.18;;;15.50;99.90;;;;;;5005253;28;20041;-77
2023/10/05 10:08:55;;;;;;;12.85;4.50;;;15.50;99.90;;;;;;4997910;28;20069;-76
2023/10/05 10:11:27;;;;;;;20.15;5.75;;;15.50;99.90;;;;;;4998524;28;20046;-76
2023/10/05 10:14:08;;;;;;;15.32;5.32;;;15.50;99.90;;;;;;4995649;28;20039;-76
2023/10/05 10:16:39;;;;;;;15.40;5.30;;;15.50;99.90;;;;;;4995090;28;20041;-76
2023/10/05 10:19:07;;;;;;;14.75;5.18;;;15.50;99.90;;;;;;5006069;28;20070;-76
2023/10/05 10:21:35;;;;;;;20.60;5.75;;;15.60;99.90;;;;;;5003786;28;20050;-76
2023/10/05 10:24:04;;;;;;;17.58;5.45;;;15.60;99.90;;;;;;4986756;28;20084;-75
2023/10/05 10:26:31;;;;;;;13.48;5.28;;;15.50;99.90;;;;;;5004045;28;20042;-75
2023/10/05 10:28:57;;;;;;;12.15;5.10;;;15.50;99.90;;;;;;5003143;28;20049;-76
2023/10/05 10:31:42;;;;;;;16.42;6.22;;;15.50;99.90;;;;;;4983987;28;20062;-75
2023/10/05 10:34:49;;;;;;;17.17;5.30;;;15.50;99.90;;;;;;5000037;28;20062;-76
2023/10/05 10:37:39;;;;;;;15.50;5.90;;;15.50;99.90;;;;;;4999550;28;20042;-76
2023/10/05 10:43:06;;;;;;;17.70;6.20;;;15.40;99.90;;;;;;5004410;28;20054;-76
2023/10/05 10:45:47;;;;;;;17.02;6.03;;;15.40;99.90;;;;;;5006413;28;20073;-76
2023/10/05 10:48:28;;;;;;;16.02;5.90;;;15.40;99.90;;;;;;5009384;28;20048;-76
2023/10/05 10:51:00;;;;;;;22.40;6.57;;;15.40;99.90;;;;;;4988921;28;20038;-76
2023/10/05 10:53:31;;;;;;;25.67;6.45;;;15.40;99.90;;;;;;4996603;28;20104;-76
2023/10/05 10:56:21;;;;;;;12.32;5.55;;;15.30;99.90;;;;;;4991311;28;20053;-76
2023/10/05 10:58:56;;;;;;;22.40;6.07;;;15.40;99.90;;;;;;4964394;28;20053;-75
2023/10/05 11:01:28;;;;;;;14.82;5.80;;;15.40;99.90;;;;;;4986460;28;20046;-75
2023/10/05 11:04:04;;;;;;;14.48;5.45;;;15.40;99.90;;;;;;4984129;28;20039;-75
2023/10/05 11:06:30;;;;;;;21.95;5.88;;;15.30;99.90;;;;;;4986027;28;20471;-76
2023/10/05 11:08:59;;;;;;;17.92;6.22;;;15.30;99.90;;;;;;4969643;28;20124;-76
2023/10/05 11:11:25;;;;;;;16.10;5.93;;;15.30;99.90;;;;;;4970541;28;20061;-77
2023/10/05 11:14:05;;;;;;;13.27;5.38;;;15.30;99.90;;;;;;4985989;28;20105;-76
2023/10/05 11:16:43;;;;;;;20.02;6.22;;;15.30;99.90;;;;;;4986856;28;20038;-75
2023/10/05 11:19:17;;;;;;;16.55;6.30;;;15.30;99.90;;;;;;4969001;28;20053;-76
2023/10/05 11:21:46;;;;;;;12.98;5.32;;;15.30;99.90;;;;;;4973759;28;20057;-76
2023/10/05 11:24:16;;;;;;;8.85;3.60;;;15.10;99.90;;;;;;4967987;28;20049;-75
2023/10/05 11:29:28;;;;;;;9.52;3.63;;;15.00;99.90;;;;;;4969955;28;20133;-75
2023/10/05 11:32:09;;;;;;;10.05;3.95;;;14.90;99.90;;;;;;4969056;28;20030;-75
2023/10/05 11:34:39;;;;;;;13.00;4.00;;;14.90;99.90;;;;;;4962946;28;20273;-74
2023/10/05 11:37:15;;;;;;;7.40;3.15;;;14.80;99.90;;;;;;4987369;28;20045;-75
2023/10/05 11:39:50;;;;;;;7.00;3.67;;;14.80;99.90;;;;;;4983571;28;20050;-75
2023/10/05 11:42:24;;;;;;;12.13;4.00;;;14.80;99.90;;;;;;4989898;28;20189;-75
2023/10/05 11:45:04;;;;;;;9.75;4.40;;;14.70;99.90;;;;;;4988126;28;20531;-74
2023/10/05 11:47:35;;;;;;;12.68;5.05;;;14.80;99.90;;;;;;4971070;28;20050;-76
2023/10/05 11:50:08;;;;;;;12.32;5.40;;;14.80;99.90;;;;;;4968482;28;20124;-75
2023/10/05 11:52:38;;;;;;;12.90;5.53;;;14.80;99.90;;;;;;4971368;28;20053;-74
2023/10/05 11:55:07;;;;;;;15.60;6.82;;;14.80;99.90;;;;;;4969744;28;20034;-74
2023/10/05 11:57:33;;;;;;;13.32;5.80;;;14.80;99.90;;;;;;4965580;28;20068;-74
2023/10/05 12:00:05;;;;;;;17.23;6.43;;;14.90;99.90;;;;;;4957763;28;20094;-74
2023/10/05 12:02:30;;;;;;;15.95;6.15;;;14.90;99.90;;;;;;4968267;28;20517;-74
2023/10/05 12:04:56;;;;;;;17.98;6.38;;;15.00;99.90;;;;;;4967104;28;20093;-74
2023/10/05 12:07:25;;;;;;;18.33;6.30;;;15.00;99.90;;;;;;4957715;28;20069;-74
2023/10/05 12:09:51;;;;;;;13.45;6.15;;;15.00;99.90;;;;;;4966750;28;20065;-74
2023/10/05 12:12:18;;;;;;;11.10;5.53;;;15.20;99.90;;;;;;4987154;28;20053;-74
2023/10/05 12:14:44;;;;;;;10.65;5.90;;;15.30;99.90;;;;;;4968419;28;20528;-74
2023/10/05 12:17:10;;;;;;;17.98;6.45;;;15.30;99.90;;;;;;4984149;28;20050;-74
2023/10/05 12:19:37;;;;;;;17.77;6.05;;;15.30;99.90;;;;;;4981791;28;20042;-74
2023/10/05 12:22:03;;;;;;;12.82;5.55;;;15.40;99.90;;;;;;4959425;28;20126;-74
2023/10/05 12:24:33;;;;;;;14.15;5.75;;;15.30;99.90;;;;;;4980890;28;20050;-74
2023/10/05 12:26:59;;;;;;;9.65;5.32;;;15.40;99.90;;;;;;4967597;28;20043;-74
2023/10/05 12:29:29;;;;;;;15.52;5.25;;;15.60;99.90;;;;;;4966860;28;20868;-74
2023/10/05 12:32:03;;;;;;;14.27;5.32;;;15.80;99.90;;;;;;4969295;28;20588;-74
2023/10/05 12:34:30;;;;;;;11.57;5.30;;;16.00;99.90;;;;;;4964877;28;20042;-74
2023/10/05 12:36:55;;;;;;;9.10;4.85;;;16.30;99.90;;;;;;4970336;28;20041;-74
2023/10/05 12:39:27;;;;;;;10.30;4.63;;;16.40;99.90;;;;;;4978401;28;20404;-74
2023/10/05 12:41:54;;;;;;;11.45;5.07;;;16.50;99.90;;;;;;5011483;28;20054;-74
2023/10/05 12:44:20;;;;;;;15.70;5.68;;;16.60;99.90;;;;;;5011266;28;20042;-74
2023/10/05 12:46:47;;;;;;;12.02;4.65;;;16.70;99.90;;;;;;4978263;28;20033;-74
2023/10/05 12:49:14;;;;;;;9.38;4.28;;;16.80;99.90;;;;;;4985847;28;20105;-74
2023/10/05 12:51:41;;;;;;;11.48;5.40;;;16.90;99.90;;;;;;4991667;28;20612;-74
2023/10/05 12:54:28;;;;;;;13.32;4.53;;;16.90;99.90;;;;;;5006456;28;20048;-74
2023/10/05 12:56:55;;;;;;;12.30;4.55;;;17.00;99.90;;;;;;4999281;28;20065;-74
2023/10/05 12:59:21;;;;;;;12.48;4.60;;;17.20;99.90;;;;;;5007756;28;20037;-74
2023/10/05 13:01:48;;;;;;;10.52;4.25;;;17.30;99.90;;;;;;5011326;28;20068;-74
2023/10/05 13:04:17;;;;;;;8.68;4.40;;;17.30;99.90;;;;;;4988800;28;20034;-75
2023/10/05 13:06:45;;;;;;;12.07;4.68;;;17.40;99.90;;;;;;4983161;28;20045;-75
2023/10/05 13:09:11;;;;;;;9.98;3.83;;;17.50;99.90;;;;;;4987861;28;20050;-75
2023/10/05 13:11:39;;;;;;;12.20;3.95;;;17.50;99.90;;;;;;4998147;28;20034;-75
2023/10/05 13:14:08;;;;;;;12.68;4.07;;;17.50;99.90;;;;;;4994245;28;20042;-75
2023/10/05 13:16:41;;;;;;;13.38;4.28;;;17.40;99.90;;;;;;4993054;28;20057;-75
2023/10/05 13:19:10;;;;;;;12.05;5.55;;;17.30;99.90;;;;;;4978262;28;20526;-75
2023/10/05 13:21:36;;;;;;;12.30;3.95;;;17.20;99.90;;;;;;4987521;28;20045;-75
2023/10/05 13:24:03;;;;;;;11.43;3.80;;;17.10;99.90;;;;;;4993463;28;20042;-75
2023/10/05 13:26:29;;;;;;;11.77;4.10;;;17.00;99.90;;;;;;4994376;28;20042;-75
2023/10/05 13:28:59;;;;;;;13.00;4.72;;;17.00;99.90;;;;;;4976982;28;20042;-75
2023/10/05 13:31:27;;;;;;;10.15;3.85;;;16.90;99.90;;;;;;4992447;28;20042;-75